sensor_id;sensor_type;location;lat;lon;timestamp;P1;durP1;ratioP1;P2;durP2;ratioP2
8626;SDS011;4351;51.422;6.794;2022-11-15T00:00:28;9.80;;;7.07;;
8626;SDS011;4351;51.422;6.794;2022-11-15T00:03:16;10.63;;;7.27;;
8626;SDS011;4351;51.422;6.794;2022-11-15T00:06:04;12.73;;;7.90;;
8626;SDS011;4351;51.422;6.794;2022-11-15T00:08:51;11.83;;;7.77;;
8626;SDS011;4351;51.422;6.794;2022-11-15T00:11:38;12.33;;;7.47;;
8626;SDS011;4351;51.422;6.794;2022-11-15T00:14:24;10.80;;;7.30;;
8626;SDS011;4351;51.422;6.794;2022-11-15T00:17:13;9.80;;;7.37;;
8626;SDS011;4351;51.422;6.794;2022-11-15T00:20:00;10.90;;;6.97;;
8626;SDS011;4351;51.422;6.794;2022-11-15T00:22:47;10.67;;;7.03;;
8626;SDS011;4351;51.422;6.794;2022-11-15T00:25:34;11.40;;;7.30;;
8626;SDS011;4351;51.422;6.794;2022-11-15T00:28:21;13.53;;;7.23;;
8626;SDS011;4351;51.422;6.794;2022-11-15T00:31:09;12.00;;;7.60;;
8626;SDS011;4351;51.422;6.794;2022-11-15T00:34:00;10.87;;;7.50;;
8626;SDS011;4351;51.422;6.794;2022-11-15T00:36:47;10.03;;;7.27;;
8626;SDS011;4351;51.422;6.794;2022-11-15T00:39:34;11.43;;;7.50;;
8626;SDS011;4351;51.422;6.794;2022-11-15T00:42:21;11.27;;;6.90;;
8626;SDS011;4351;51.422;6.794;2022-11-15T00:45:08;10.77;;;7.00;;
8626;SDS011;4351;51.422;6.794;2022-11-15T00:47:56;11.20;;;7.20;;
8626;SDS011;4351;51.422;6.794;2022-11-15T00:50:44;11.70;;;7.23;;
8626;SDS011;4351;51.422;6.794;2022-11-15T00:53:31;8.43;;;6.93;;
8626;SDS011;4351;51.422;6.794;2022-11-15T00:56:19;11.93;;;7.07;;
8626;SDS011;4351;51.422;6.794;2022-11-15T00:59:07;10.73;;;6.90;;
8626;SDS011;4351;51.422;6.794;2022-11-15T01:01:54;10.33;;;7.27;;
8626;SDS011;4351;51.422;6.794;2022-11-15T01:04:41;12.77;;;7.60;;
8626;SDS011;4351;51.422;6.794;2022-11-15T01:07:29;10.73;;;7.10;;
8626;SDS011;4351;51.422;6.794;2022-11-15T01:10:16;10.70;;;7.10;;
8626;SDS011;4351;51.422;6.794;2022-11-15T01:13:03;9.03;;;6.80;;
8626;SDS011;4351;51.422;6.794;2022-11-15T01:15:50;12.63;;;6.90;;
8626;SDS011;4351;51.422;6.794;2022-11-15T01:18:38;8.67;;;6.50;;
8626;SDS011;4351;51.422;6.794;2022-11-15T01:21:26;8.73;;;7.00;;
8626;SDS011;4351;51.422;6.794;2022-11-15T01:24:15;8.10;;;6.67;;
8626;SDS011;4351;51.422;6.794;2022-11-15T01:27:03;10.13;;;7.00;;
8626;SDS011;4351;51.422;6.794;2022-11-15T01:29:50;9.67;;;6.70;;
8626;SDS011;4351;51.422;6.794;2022-11-15T01:32:37;7.87;;;6.23;;
8626;SDS011;4351;51.422;6.794;2022-11-15T01:35:24;8.83;;;6.50;;
8626;SDS011;4351;51.422;6.794;2022-11-15T01:38:12;9.40;;;6.80;;
8626;SDS011;4351;51.422;6.794;2022-11-15T01:41:01;9.70;;;6.73;;
8626;SDS011;4351;51.422;6.794;2022-11-15T01:43:48;10.70;;;6.53;;
8626;SDS011;4351;51.422;6.794;2022-11-15T01:46:38;9.00;;;6.47;;
8626;SDS011;4351;51.422;6.794;2022-11-15T01:49:35;11.30;;;6.57;;
8626;SDS011;4351;51.422;6.794;2022-11-15T01:52:25;8.30;;;6.17;;
8626;SDS011;4351;51.422;6.794;2022-11-15T01:55:16;10.73;;;6.13;;
8626;SDS011;4351;51.422;6.794;2022-11-15T01:58:10;8.73;;;6.67;;
8626;SDS011;4351;51.422;6.794;2022-11-15T02:00:57;10.10;;;6.57;;
8626;SDS011;4351;51.422;6.794;2022-11-15T02:03:46;8.63;;;5.87;;
8626;SDS011;4351;51.422;6.794;2022-11-15T02:06:38;9.03;;;6.03;;
8626;SDS011;4351;51.422;6.794;2022-11-15T02:09:26;9.97;;;6.50;;
8626;SDS011;4351;51.422;6.794;2022-11-15T02:12:14;6.80;;;5.70;;
8626;SDS011;4351;51.422;6.794;2022-11-15T02:15:07;7.93;;;6.47;;
8626;SDS011;4351;51.422;6.794;2022-11-15T02:17:58;9.33;;;6.43;;
8626;SDS011;4351;51.422;6.794;2022-11-15T02:21:06;9.43;;;5.83;;
8626;SDS011;4351;51.422;6.794;2022-11-15T02:24:07;11.03;;;6.10;;
8626;SDS011;4351;51.422;6.794;2022-11-15T02:30:31;9.07;;;6.50;;
8626;SDS011;4351;51.422;6.794;2022-11-15T02:33:27;9.53;;;6.50;;
8626;SDS011;4351;51.422;6.794;2022-11-15T02:36:23;10.20;;;6.23;;
8626;SDS011;4351;51.422;6.794;2022-11-15T02:39:21;8.43;;;5.93;;
8626;SDS011;4351;51.422;6.794;2022-11-15T02:42:14;7.43;;;6.07;;
8626;SDS011;4351;51.422;6.794;2022-11-15T02:45:23;9.00;;;6.37;;
8626;SDS011;4351;51.422;6.794;2022-11-15T02:48:14;10.10;;;6.60;;
8626;SDS011;4351;51.422;6.794;2022-11-15T02:51:02;10.33;;;6.27;;
8626;SDS011;4351;51.422;6.794;2022-11-15T02:53:49;8.10;;;6.30;;
8626;SDS011;4351;51.422;6.794;2022-11-15T02:56:36;8.27;;;6.03;;
8626;SDS011;4351;51.422;6.794;2022-11-15T02:59:33;11.37;;;5.97;;
8626;SDS011;4351;51.422;6.794;2022-11-15T03:02:42;9.17;;;6.17;;
8626;SDS011;4351;51.422;6.794;2022-11-15T03:05:46;9.30;;;6.07;;
8626;SDS011;4351;51.422;6.794;2022-11-15T03:08:40;10.00;;;6.97;;
8626;SDS011;4351;51.422;6.794;2022-11-15T03:11:35;10.17;;;6.07;;
8626;SDS011;4351;51.422;6.794;2022-11-15T03:14:27;8.27;;;6.70;;
8626;SDS011;4351;51.422;6.794;2022-11-15T03:17:19;8.97;;;6.00;;
8626;SDS011;4351;51.422;6.794;2022-11-15T03:20:10;10.77;;;6.40;;
8626;SDS011;4351;51.422;6.794;2022-11-15T03:23:03;10.60;;;6.63;;
8626;SDS011;4351;51.422;6.794;2022-11-15T03:25:52;10.60;;;6.83;;
8626;SDS011;4351;51.422;6.794;2022-11-15T03:28:42;10.07;;;6.47;;
8626;SDS011;4351;51.422;6.794;2022-11-15T03:31:32;10.60;;;6.93;;
8626;SDS011;4351;51.422;6.794;2022-11-15T03:34:37;10.70;;;7.10;;
8626;SDS011;4351;51.422;6.794;2022-11-15T03:37:30;12.90;;;7.33;;
8626;SDS011;4351;51.422;6.794;2022-11-15T03:40:24;9.70;;;6.93;;
8626;SDS011;4351;51.422;6.794;2022-11-15T03:43:28;11.50;;;6.77;;
8626;SDS011;4351;51.422;6.794;2022-11-15T03:46:19;13.23;;;7.07;;
8626;SDS011;4351;51.422;6.794;2022-11-15T03:49:12;12.43;;;6.80;;
8626;SDS011;4351;51.422;6.794;2022-11-15T03:52:03;9.17;;;6.17;;
8626;SDS011;4351;51.422;6.794;2022-11-15T03:54:52;10.17;;;6.90;;
8626;SDS011;4351;51.422;6.794;2022-11-15T03:57:42;9.37;;;6.30;;
8626;SDS011;4351;51.422;6.794;2022-11-15T04:00:28;9.37;;;6.30;;
8626;SDS011;4351;51.422;6.794;2022-11-15T04:03:15;9.53;;;6.00;;
8626;SDS011;4351;51.422;6.794;2022-11-15T04:06:02;10.80;;;6.13;;
8626;SDS011;4351;51.422;6.794;2022-11-15T04:08:48;9.13;;;5.90;;
8626;SDS011;4351;51.422;6.794;2022-11-15T04:11:35;10.30;;;6.13;;
8626;SDS011;4351;51.422;6.794;2022-11-15T04:14:23;7.93;;;5.80;;
8626;SDS011;4351;51.422;6.794;2022-11-15T04:17:10;8.57;;;5.80;;
8626;SDS011;4351;51.422;6.794;2022-11-15T04:19:58;10.20;;;5.57;;
8626;SDS011;4351;51.422;6.794;2022-11-15T04:23:02;9.47;;;5.70;;
8626;SDS011;4351;51.422;6.794;2022-11-15T04:26:09;10.23;;;6.10;;
8626;SDS011;4351;51.422;6.794;2022-11-15T04:28:57;7.80;;;5.23;;
8626;SDS011;4351;51.422;6.794;2022-11-15T04:32:04;7.83;;;5.30;;
8626;SDS011;4351;51.422;6.794;2022-11-15T04:34:52;8.67;;;5.63;;
8626;SDS011;4351;51.422;6.794;2022-11-15T04:37:39;7.23;;;5.40;;
8626;SDS011;4351;51.422;6.794;2022-11-15T04:40:33;7.73;;;5.43;;
8626;SDS011;4351;51.422;6.794;2022-11-15T04:43:20;7.30;;;5.97;;
8626;SDS011;4351;51.422;6.794;2022-11-15T04:46:07;8.87;;;5.10;;
8626;SDS011;4351;51.422;6.794;2022-11-15T04:48:55;8.07;;;5.20;;
8626;SDS011;4351;51.422;6.794;2022-11-15T04:51:43;6.90;;;4.80;;
8626;SDS011;4351;51.422;6.794;2022-11-15T04:54:30;7.93;;;4.93;;
8626;SDS011;4351;51.422;6.794;2022-11-15T04:57:17;7.30;;;4.97;;
8626;SDS011;4351;51.422;6.794;2022-11-15T05:00:05;7.03;;;5.10;;
8626;SDS011;4351;51.422;6.794;2022-11-15T05:02:57;8.90;;;5.13;;
8626;SDS011;4351;51.422;6.794;2022-11-15T05:06:02;6.97;;;4.77;;
8626;SDS011;4351;51.422;6.794;2022-11-15T05:08:49;7.57;;;5.00;;
8626;SDS011;4351;51.422;6.794;2022-11-15T05:11:36;6.33;;;4.77;;
8626;SDS011;4351;51.422;6.794;2022-11-15T05:14:23;8.47;;;4.63;;
8626;SDS011;4351;51.422;6.794;2022-11-15T05:17:09;6.03;;;3.90;;
8626;SDS011;4351;51.422;6.794;2022-11-15T05:19:56;7.93;;;4.67;;
8626;SDS011;4351;51.422;6.794;2022-11-15T05:22:44;6.20;;;4.43;;
8626;SDS011;4351;51.422;6.794;2022-11-15T05:25:31;7.13;;;4.37;;
8626;SDS011;4351;51.422;6.794;2022-11-15T05:28:18;6.43;;;4.47;;
8626;SDS011;4351;51.422;6.794;2022-11-15T05:31:05;6.03;;;4.50;;
8626;SDS011;4351;51.422;6.794;2022-11-15T05:33:54;6.27;;;4.27;;
8626;SDS011;4351;51.422;6.794;2022-11-15T05:36:42;8.33;;;4.73;;
8626;SDS011;4351;51.422;6.794;2022-11-15T05:39:32;6.43;;;4.57;;
8626;SDS011;4351;51.422;6.794;2022-11-15T05:42:19;6.20;;;4.50;;
8626;SDS011;4351;51.422;6.794;2022-11-15T05:45:06;7.43;;;4.83;;
8626;SDS011;4351;51.422;6.794;2022-11-15T05:47:55;6.43;;;4.87;;
8626;SDS011;4351;51.422;6.794;2022-11-15T05:50:46;6.73;;;4.90;;
8626;SDS011;4351;51.422;6.794;2022-11-15T05:53:34;8.27;;;5.30;;
8626;SDS011;4351;51.422;6.794;2022-11-15T05:56:23;8.50;;;5.63;;
8626;SDS011;4351;51.422;6.794;2022-11-15T05:59:10;7.60;;;5.43;;
8626;SDS011;4351;51.422;6.794;2022-11-15T06:01:57;7.43;;;5.87;;
8626;SDS011;4351;51.422;6.794;2022-11-15T06:04:44;7.03;;;5.40;;
8626;SDS011;4351;51.422;6.794;2022-11-15T06:07:31;8.50;;;6.20;;
8626;SDS011;4351;51.422;6.794;2022-11-15T06:10:19;8.80;;;5.90;;
8626;SDS011;4351;51.422;6.794;2022-11-15T06:13:11;8.77;;;6.10;;
8626;SDS011;4351;51.422;6.794;2022-11-15T06:15:59;8.13;;;5.70;;
8626;SDS011;4351;51.422;6.794;2022-11-15T06:19:03;6.27;;;5.53;;
8626;SDS011;4351;51.422;6.794;2022-11-15T06:21:56;8.60;;;5.80;;
8626;SDS011;4351;51.422;6.794;2022-11-15T06:24:50;7.40;;;5.60;;
8626;SDS011;4351;51.422;6.794;2022-11-15T06:27:50;7.13;;;5.80;;
8626;SDS011;4351;51.422;6.794;2022-11-15T06:30:40;7.03;;;5.60;;
8626;SDS011;4351;51.422;6.794;2022-11-15T06:33:27;6.77;;;5.13;;
8626;SDS011;4351;51.422;6.794;2022-11-15T06:36:14;6.57;;;5.60;;
8626;SDS011;4351;51.422;6.794;2022-11-15T06:39:02;7.00;;;5.63;;
8626;SDS011;4351;51.422;6.794;2022-11-15T06:41:49;6.77;;;5.40;;
8626;SDS011;4351;51.422;6.794;2022-11-15T06:44:35;7.20;;;5.80;;
8626;SDS011;4351;51.422;6.794;2022-11-15T06:47:24;9.80;;;5.50;;
8626;SDS011;4351;51.422;6.794;2022-11-15T06:50:11;7.37;;;5.20;;
8626;SDS011;4351;51.422;6.794;2022-11-15T06:53:00;6.30;;;4.70;;
8626;SDS011;4351;51.422;6.794;2022-11-15T06:55:48;8.20;;;4.70;;
8626;SDS011;4351;51.422;6.794;2022-11-15T06:58:39;6.20;;;5.17;;
8626;SDS011;4351;51.422;6.794;2022-11-15T07:01:26;6.43;;;4.80;;
8626;SDS011;4351;51.422;6.794;2022-11-15T07:04:14;7.93;;;4.60;;
8626;SDS011;4351;51.422;6.794;2022-11-15T07:07:01;7.23;;;4.80;;
8626;SDS011;4351;51.422;6.794;2022-11-15T07:09:48;7.83;;;5.00;;
8626;SDS011;4351;51.422;6.794;2022-11-15T07:12:35;7.37;;;4.73;;
8626;SDS011;4351;51.422;6.794;2022-11-15T07:15:22;7.33;;;4.40;;
8626;SDS011;4351;51.422;6.794;2022-11-15T07:18:10;8.20;;;4.90;;
8626;SDS011;4351;51.422;6.794;2022-11-15T07:21:01;8.23;;;4.97;;
8626;SDS011;4351;51.422;6.794;2022-11-15T07:23:48;6.40;;;4.40;;
8626;SDS011;4351;51.422;6.794;2022-11-15T07:26:35;8.27;;;4.97;;
8626;SDS011;4351;51.422;6.794;2022-11-15T07:29:22;6.17;;;4.17;;
8626;SDS011;4351;51.422;6.794;2022-11-15T07:32:09;6.20;;;4.20;;
8626;SDS011;4351;51.422;6.794;2022-11-15T07:34:55;5.83;;;3.63;;
8626;SDS011;4351;51.422;6.794;2022-11-15T07:37:43;6.37;;;4.00;;
8626;SDS011;4351;51.422;6.794;2022-11-15T07:40:31;6.27;;;4.00;;
8626;SDS011;4351;51.422;6.794;2022-11-15T07:43:17;5.23;;;3.87;;
8626;SDS011;4351;51.422;6.794;2022-11-15T07:46:04;5.13;;;3.60;;
8626;SDS011;4351;51.422;6.794;2022-11-15T07:48:54;5.40;;;3.80;;
8626;SDS011;4351;51.422;6.794;2022-11-15T07:51:41;6.40;;;3.83;;
8626;SDS011;4351;51.422;6.794;2022-11-15T07:54:29;5.20;;;3.47;;
8626;SDS011;4351;51.422;6.794;2022-11-15T07:57:16;6.67;;;3.57;;
8626;SDS011;4351;51.422;6.794;2022-11-15T08:00:03;5.50;;;3.30;;
8626;SDS011;4351;51.422;6.794;2022-11-15T08:02:52;4.80;;;2.33;;
8626;SDS011;4351;51.422;6.794;2022-11-15T08:05:39;3.37;;;2.00;;
8626;SDS011;4351;51.422;6.794;2022-11-15T08:08:27;3.03;;;1.30;;
8626;SDS011;4351;51.422;6.794;2022-11-15T08:11:15;2.50;;;1.13;;
8626;SDS011;4351;51.422;6.794;2022-11-15T08:14:02;4.20;;;1.10;;
8626;SDS011;4351;51.422;6.794;2022-11-15T08:16:49;2.40;;;1.00;;
8626;SDS011;4351;51.422;6.794;2022-11-15T08:19:36;2.43;;;0.90;;
8626;SDS011;4351;51.422;6.794;2022-11-15T08:22:22;2.57;;;1.00;;
8626;SDS011;4351;51.422;6.794;2022-11-15T08:25:09;2.83;;;0.90;;
8626;SDS011;4351;51.422;6.794;2022-11-15T08:27:58;1.70;;;0.90;;
8626;SDS011;4351;51.422;6.794;2022-11-15T08:30:46;1.17;;;0.80;;
8626;SDS011;4351;51.422;6.794;2022-11-15T08:33:33;2.60;;;0.80;;
8626;SDS011;4351;51.422;6.794;2022-11-15T08:36:22;1.50;;;0.90;;
8626;SDS011;4351;51.422;6.794;2022-11-15T08:39:10;1.70;;;0.90;;
8626;SDS011;4351;51.422;6.794;2022-11-15T08:41:57;1.27;;;0.80;;
8626;SDS011;4351;51.422;6.794;2022-11-15T08:44:46;0.90;;;0.80;;
8626;SDS011;4351;51.422;6.794;2022-11-15T08:47:33;3.10;;;1.07;;
8626;SDS011;4351;51.422;6.794;2022-11-15T08:50:20;1.20;;;0.80;;
8626;SDS011;4351;51.422;6.794;2022-11-15T08:53:07;1.53;;;1.10;;
8626;SDS011;4351;51.422;6.794;2022-11-15T08:55:54;1.50;;;0.90;;
8626;SDS011;4351;51.422;6.794;2022-11-15T08:58:42;2.60;;;1.00;;
8626;SDS011;4351;51.422;6.794;2022-11-15T09:01:30;4.33;;;1.30;;
8626;SDS011;4351;51.422;6.794;2022-11-15T09:04:17;2.33;;;1.10;;
8626;SDS011;4351;51.422;6.794;2022-11-15T09:07:04;2.33;;;1.10;;
8626;SDS011;4351;51.422;6.794;2022-11-15T09:09:51;2.00;;;1.53;;
8626;SDS011;4351;51.422;6.794;2022-11-15T09:12:38;2.10;;;1.63;;
8626;SDS011;4351;51.422;6.794;2022-11-15T09:15:25;3.33;;;1.77;;
8626;SDS011;4351;51.422;6.794;2022-11-15T09:18:13;3.90;;;1.70;;
8626;SDS011;4351;51.422;6.794;2022-11-15T09:21:00;3.20;;;1.80;;
8626;SDS011;4351;51.422;6.794;2022-11-15T09:23:49;2.80;;;1.70;;
8626;SDS011;4351;51.422;6.794;2022-11-15T09:26:36;3.13;;;2.23;;
8626;SDS011;4351;51.422;6.794;2022-11-15T09:29:23;3.43;;;1.97;;
8626;SDS011;4351;51.422;6.794;2022-11-15T09:32:10;4.97;;;2.57;;
8626;SDS011;4351;51.422;6.794;2022-11-15T09:34:58;6.60;;;2.77;;
8626;SDS011;4351;51.422;6.794;2022-11-15T09:37:46;3.47;;;2.40;;
8626;SDS011;4351;51.422;6.794;2022-11-15T09:40:40;3.93;;;2.60;;
8626;SDS011;4351;51.422;6.794;2022-11-15T09:43:28;2.80;;;2.47;;
8626;SDS011;4351;51.422;6.794;2022-11-15T09:46:31;4.80;;;2.40;;
8626;SDS011;4351;51.422;6.794;2022-11-15T09:49:17;4.73;;;2.53;;
8626;SDS011;4351;51.422;6.794;2022-11-15T09:52:07;2.60;;;2.10;;
8626;SDS011;4351;51.422;6.794;2022-11-15T09:54:39;2.97;;;2.10;;
8626;SDS011;4351;51.422;6.794;2022-11-15T09:57:31;5.40;;;2.30;;
8626;SDS011;4351;51.422;6.794;2022-11-15T10:00:09;2.87;;;1.97;;
8626;SDS011;4351;51.422;6.794;2022-11-15T10:03:08;4.60;;;1.63;;
8626;SDS011;4351;51.422;6.794;2022-11-15T10:05:39;3.67;;;1.77;;
8626;SDS011;4351;51.422;6.794;2022-11-15T10:08:13;1.90;;;1.37;;
8626;SDS011;4351;51.422;6.794;2022-11-15T10:10:59;4.63;;;1.77;;
8626;SDS011;4351;51.422;6.794;2022-11-15T10:13:49;2.50;;;1.33;;
8626;SDS011;4351;51.422;6.794;2022-11-15T10:16:25;1.90;;;1.40;;
8626;SDS011;4351;51.422;6.794;2022-11-15T10:19:19;2.43;;;1.33;;
8626;SDS011;4351;51.422;6.794;2022-11-15T10:21:56;3.00;;;1.20;;
8626;SDS011;4351;51.422;6.794;2022-11-15T10:24:34;3.73;;;1.30;;
8626;SDS011;4351;51.422;6.794;2022-11-15T10:27:07;3.67;;;1.20;;
8626;SDS011;4351;51.422;6.794;2022-11-15T10:29:42;5.80;;;1.47;;
8626;SDS011;4351;51.422;6.794;2022-11-15T10:32:12;3.67;;;1.23;;
8626;SDS011;4351;51.422;6.794;2022-11-15T10:34:43;4.27;;;1.40;;
8626;SDS011;4351;51.422;6.794;2022-11-15T10:37:11;4.23;;;1.40;;
8626;SDS011;4351;51.422;6.794;2022-11-15T10:39:41;3.37;;;1.40;;
8626;SDS011;4351;51.422;6.794;2022-11-15T10:42:17;2.03;;;1.20;;
8626;SDS011;4351;51.422;6.794;2022-11-15T10:44:46;2.80;;;1.13;;
8626;SDS011;4351;51.422;6.794;2022-11-15T10:47:24;3.33;;;1.20;;
8626;SDS011;4351;51.422;6.794;2022-11-15T10:49:58;1.57;;;1.10;;
8626;SDS011;4351;51.422;6.794;2022-11-15T10:52:28;3.43;;;1.20;;
8626;SDS011;4351;51.422;6.794;2022-11-15T10:55:01;4.67;;;1.20;;
8626;SDS011;4351;51.422;6.794;2022-11-15T10:57:33;3.87;;;1.23;;
8626;SDS011;4351;51.422;6.794;2022-11-15T11:00:05;3.53;;;1.40;;
8626;SDS011;4351;51.422;6.794;2022-11-15T11:02:35;2.33;;;1.13;;
8626;SDS011;4351;51.422;6.794;2022-11-15T11:05:06;4.87;;;1.63;;
8626;SDS011;4351;51.422;6.794;2022-11-15T11:07:55;4.23;;;1.10;;
8626;SDS011;4351;51.422;6.794;2022-11-15T11:10:27;6.20;;;1.30;;
8626;SDS011;4351;51.422;6.794;2022-11-15T11:13:21;4.20;;;1.30;;
8626;SDS011;4351;51.422;6.794;2022-11-15T11:15:52;2.80;;;1.47;;
8626;SDS011;4351;51.422;6.794;2022-11-15T11:18:25;1.63;;;1.10;;
8626;SDS011;4351;51.422;6.794;2022-11-15T11:20:59;3.47;;;0.97;;
8626;SDS011;4351;51.422;6.794;2022-11-15T11:23:36;2.13;;;1.07;;
8626;SDS011;4351;51.422;6.794;2022-11-15T11:26:18;4.47;;;1.40;;
8626;SDS011;4351;51.422;6.794;2022-11-15T11:29:08;2.37;;;1.00;;
8626;SDS011;4351;51.422;6.794;2022-11-15T11:31:47;3.77;;;1.20;;
8626;SDS011;4351;51.422;6.794;2022-11-15T11:34:27;3.27;;;0.90;;
8626;SDS011;4351;51.422;6.794;2022-11-15T11:37:09;3.23;;;1.00;;
8626;SDS011;4351;51.422;6.794;2022-11-15T11:39:44;1.70;;;0.87;;
8626;SDS011;4351;51.422;6.794;2022-11-15T11:42:26;3.33;;;1.07;;
8626;SDS011;4351;51.422;6.794;2022-11-15T11:45:05;2.00;;;1.33;;
8626;SDS011;4351;51.422;6.794;2022-11-15T11:47:46;3.03;;;1.00;;
8626;SDS011;4351;51.422;6.794;2022-11-15T11:50:17;3.70;;;0.80;;
8626;SDS011;4351;51.422;6.794;2022-11-15T11:52:51;1.87;;;0.83;;
8626;SDS011;4351;51.422;6.794;2022-11-15T11:55:31;3.00;;;1.10;;
8626;SDS011;4351;51.422;6.794;2022-11-15T11:58:09;2.30;;;1.20;;
8626;SDS011;4351;51.422;6.794;2022-11-15T12:00:41;3.20;;;0.97;;
8626;SDS011;4351;51.422;6.794;2022-11-15T12:06:15;5.40;;;0.97;;
8626;SDS011;4351;51.422;6.794;2022-11-15T12:09:54;1.37;;;0.87;;
8626;SDS011;4351;51.422;6.794;2022-11-15T12:12:28;2.60;;;0.87;;
8626;SDS011;4351;51.422;6.794;2022-11-15T12:15:02;2.70;;;0.90;;
8626;SDS011;4351;51.422;6.794;2022-11-15T12:17:40;1.60;;;0.80;;
8626;SDS011;4351;51.422;6.794;2022-11-15T12:20:14;2.07;;;0.90;;
8626;SDS011;4351;51.422;6.794;2022-11-15T12:22:47;4.53;;;1.07;;
8626;SDS011;4351;51.422;6.794;2022-11-15T12:25:22;3.60;;;1.20;;
8626;SDS011;4351;51.422;6.794;2022-11-15T12:27:59;2.43;;;0.90;;
8626;SDS011;4351;51.422;6.794;2022-11-15T12:30:44;2.83;;;0.90;;
8626;SDS011;4351;51.422;6.794;2022-11-15T14:30:52;4.80;;;1.40;;
8626;SDS011;4351;51.422;6.794;2022-11-15T14:33:22;4.47;;;1.10;;
8626;SDS011;4351;51.422;6.794;2022-11-15T14:36:05;4.60;;;1.17;;
8626;SDS011;4351;51.422;6.794;2022-11-15T14:38:39;3.87;;;1.27;;
8626;SDS011;4351;51.422;6.794;2022-11-15T14:41:11;2.17;;;1.10;;
8626;SDS011;4351;51.422;6.794;2022-11-15T14:43:46;4.30;;;0.90;;
8626;SDS011;4351;51.422;6.794;2022-11-15T14:46:16;4.33;;;1.20;;
8626;SDS011;4351;51.422;6.794;2022-11-15T14:48:45;3.37;;;0.90;;
8626;SDS011;4351;51.422;6.794;2022-11-15T14:51:14;3.20;;;1.10;;
8626;SDS011;4351;51.422;6.794;2022-11-15T14:53:44;6.70;;;1.37;;
8626;SDS011;4351;51.422;6.794;2022-11-15T14:56:14;4.37;;;1.13;;
8626;SDS011;4351;51.422;6.794;2022-11-15T14:58:43;2.93;;;1.20;;
8626;SDS011;4351;51.422;6.794;2022-11-15T15:01:12;2.53;;;1.37;;
8626;SDS011;4351;51.422;6.794;2022-11-15T15:03:45;2.23;;;1.40;;
8626;SDS011;4351;51.422;6.794;2022-11-15T15:06:13;1.77;;;1.30;;
8626;SDS011;4351;51.422;6.794;2022-11-15T15:08:44;3.17;;;1.47;;
8626;SDS011;4351;51.422;6.794;2022-11-15T15:11:16;3.03;;;1.63;;
8626;SDS011;4351;51.422;6.794;2022-11-15T15:13:47;3.70;;;1.70;;
8626;SDS011;4351;51.422;6.794;2022-11-15T15:16:15;3.53;;;2.07;;
8626;SDS011;4351;51.422;6.794;2022-11-15T15:18:43;4.50;;;1.90;;
8626;SDS011;4351;51.422;6.794;2022-11-15T15:21:17;3.23;;;1.80;;
8626;SDS011;4351;51.422;6.794;2022-11-15T15:23:49;8.70;;;2.00;;
8626;SDS011;4351;51.422;6.794;2022-11-15T15:26:17;3.80;;;1.80;;
8626;SDS011;4351;51.422;6.794;2022-11-15T15:28:46;5.70;;;1.80;;
8626;SDS011;4351;51.422;6.794;2022-11-15T15:31:15;3.80;;;1.70;;
8626;SDS011;4351;51.422;6.794;2022-11-15T15:33:43;3.40;;;1.90;;
8626;SDS011;4351;51.422;6.794;2022-11-15T15:36:13;3.03;;;2.07;;
8626;SDS011;4351;51.422;6.794;2022-11-15T15:38:45;2.93;;;1.73;;
8626;SDS011;4351;51.422;6.794;2022-11-15T15:41:14;3.60;;;1.80;;
8626;SDS011;4351;51.422;6.794;2022-11-15T15:43:44;4.00;;;1.80;;
8626;SDS011;4351;51.422;6.794;2022-11-15T15:46:13;3.77;;;1.93;;
8626;SDS011;4351;51.422;6.794;2022-11-15T15:48:42;4.47;;;2.00;;
8626;SDS011;4351;51.422;6.794;2022-11-15T15:51:11;2.63;;;1.67;;
8626;SDS011;4351;51.422;6.794;2022-11-15T15:53:50;3.97;;;1.87;;
8626;SDS011;4351;51.422;6.794;2022-11-15T15:56:23;4.00;;;1.90;;
8626;SDS011;4351;51.422;6.794;2022-11-15T15:58:51;3.43;;;1.90;;
8626;SDS011;4351;51.422;6.794;2022-11-15T16:01:21;5.10;;;2.10;;
8626;SDS011;4351;51.422;6.794;2022-11-15T16:03:51;5.37;;;1.90;;
8626;SDS011;4351;51.422;6.794;2022-11-15T16:09:09;9.00;;;2.27;;
8626;SDS011;4351;51.422;6.794;2022-11-15T16:11:43;4.63;;;1.97;;
8626;SDS011;4351;51.422;6.794;2022-11-15T16:14:12;3.17;;;1.90;;
8626;SDS011;4351;51.422;6.794;2022-11-15T16:16:41;4.23;;;1.90;;
8626;SDS011;4351;51.422;6.794;2022-11-15T16:19:09;4.87;;;1.73;;
8626;SDS011;4351;51.422;6.794;2022-11-15T16:21:38;3.53;;;1.77;;
8626;SDS011;4351;51.422;6.794;2022-11-15T16:24:06;3.73;;;1.80;;
8626;SDS011;4351;51.422;6.794;2022-11-15T16:26:36;4.03;;;1.70;;
8626;SDS011;4351;51.422;6.794;2022-11-15T16:29:05;4.60;;;1.93;;
8626;SDS011;4351;51.422;6.794;2022-11-15T16:31:35;3.13;;;1.90;;
8626;SDS011;4351;51.422;6.794;2022-11-15T16:34:03;5.17;;;1.90;;
8626;SDS011;4351;51.422;6.794;2022-11-15T16:36:32;3.70;;;1.83;;
8626;SDS011;4351;51.422;6.794;2022-11-15T16:39:02;4.83;;;2.00;;
8626;SDS011;4351;51.422;6.794;2022-11-15T16:41:30;4.77;;;2.03;;
8626;SDS011;4351;51.422;6.794;2022-11-15T16:44:00;5.60;;;2.13;;
8626;SDS011;4351;51.422;6.794;2022-11-15T16:46:28;5.83;;;1.90;;
8626;SDS011;4351;51.422;6.794;2022-11-15T16:48:56;5.47;;;2.10;;
8626;SDS011;4351;51.422;6.794;2022-11-15T16:51:24;3.70;;;1.90;;
8626;SDS011;4351;51.422;6.794;2022-11-15T16:53:53;3.07;;;2.20;;
8626;SDS011;4351;51.422;6.794;2022-11-15T16:56:22;4.43;;;2.50;;
8626;SDS011;4351;51.422;6.794;2022-11-15T16:58:52;3.60;;;2.30;;
8626;SDS011;4351;51.422;6.794;2022-11-15T17:01:23;3.90;;;2.03;;
8626;SDS011;4351;51.422;6.794;2022-11-15T17:03:52;4.70;;;2.33;;
8626;SDS011;4351;51.422;6.794;2022-11-15T17:06:21;6.90;;;2.30;;
8626;SDS011;4351;51.422;6.794;2022-11-15T17:08:49;4.03;;;1.90;;
8626;SDS011;4351;51.422;6.794;2022-11-15T17:11:18;5.57;;;2.20;;
8626;SDS011;4351;51.422;6.794;2022-11-15T17:13:47;5.57;;;2.37;;
8626;SDS011;4351;51.422;6.794;2022-11-15T17:16:16;5.37;;;2.00;;
8626;SDS011;4351;51.422;6.794;2022-11-15T17:18:48;3.63;;;2.00;;
8626;SDS011;4351;51.422;6.794;2022-11-15T17:21:18;2.63;;;2.10;;
8626;SDS011;4351;51.422;6.794;2022-11-15T17:23:49;6.07;;;2.23;;
8626;SDS011;4351;51.422;6.794;2022-11-15T17:26:18;2.80;;;1.57;;
8626;SDS011;4351;51.422;6.794;2022-11-15T17:28:58;5.73;;;1.97;;
8626;SDS011;4351;51.422;6.794;2022-11-15T17:31:27;5.47;;;1.80;;
8626;SDS011;4351;51.422;6.794;2022-11-15T17:34:00;3.93;;;2.10;;
8626;SDS011;4351;51.422;6.794;2022-11-15T17:36:29;1.87;;;1.67;;
8626;SDS011;4351;51.422;6.794;2022-11-15T17:38:57;3.37;;;2.00;;
8626;SDS011;4351;51.422;6.794;2022-11-15T17:41:26;4.17;;;1.70;;
8626;SDS011;4351;51.422;6.794;2022-11-15T17:43:54;2.67;;;1.70;;
8626;SDS011;4351;51.422;6.794;2022-11-15T17:46:25;2.77;;;1.63;;
8626;SDS011;4351;51.422;6.794;2022-11-15T17:48:54;1.93;;;1.67;;
8626;SDS011;4351;51.422;6.794;2022-11-15T17:51:24;3.17;;;1.50;;
8626;SDS011;4351;51.422;6.794;2022-11-15T17:53:53;3.50;;;1.63;;
8626;SDS011;4351;51.422;6.794;2022-11-15T17:56:22;3.43;;;1.70;;
8626;SDS011;4351;51.422;6.794;2022-11-15T17:58:53;4.67;;;1.80;;
8626;SDS011;4351;51.422;6.794;2022-11-15T18:01:22;3.90;;;1.67;;
8626;SDS011;4351;51.422;6.794;2022-11-15T18:03:52;1.97;;;1.60;;
8626;SDS011;4351;51.422;6.794;2022-11-15T18:06:22;1.90;;;1.57;;
8626;SDS011;4351;51.422;6.794;2022-11-15T18:08:53;3.23;;;1.70;;
8626;SDS011;4351;51.422;6.794;2022-11-15T18:11:22;2.23;;;1.80;;
8626;SDS011;4351;51.422;6.794;2022-11-15T18:13:52;1.60;;;1.50;;
8626;SDS011;4351;51.422;6.794;2022-11-15T18:16:21;4.10;;;1.60;;
8626;SDS011;4351;51.422;6.794;2022-11-15T18:18:51;6.43;;;1.60;;
8626;SDS011;4351;51.422;6.794;2022-11-15T18:21:20;2.20;;;1.47;;
8626;SDS011;4351;51.422;6.794;2022-11-15T18:23:55;2.10;;;1.60;;
8626;SDS011;4351;51.422;6.794;2022-11-15T18:26:25;3.77;;;1.60;;
8626;SDS011;4351;51.422;6.794;2022-11-15T18:28:54;1.70;;;1.60;;
8626;SDS011;4351;51.422;6.794;2022-11-15T18:31:25;2.10;;;1.70;;
8626;SDS011;4351;51.422;6.794;2022-11-15T18:33:56;1.70;;;1.60;;
8626;SDS011;4351;51.422;6.794;2022-11-15T18:36:27;3.47;;;2.10;;
8626;SDS011;4351;51.422;6.794;2022-11-15T18:38:59;2.17;;;1.77;;
8626;SDS011;4351;51.422;6.794;2022-11-15T18:41:29;5.33;;;2.20;;
8626;SDS011;4351;51.422;6.794;2022-11-15T18:43:58;2.43;;;1.90;;
8626;SDS011;4351;51.422;6.794;2022-11-15T18:46:30;2.93;;;2.03;;
8626;SDS011;4351;51.422;6.794;2022-11-15T18:48:59;2.60;;;1.90;;
8626;SDS011;4351;51.422;6.794;2022-11-15T18:51:29;3.37;;;2.20;;